createdAt,value
2023-03-26T00:01:16.115Z,100112.94
2023-03-26T00:03:44.771Z,100108.75
2023-03-26T00:06:14.436Z,100108.59
2023-03-26T00:08:44.522Z,100100.78
2023-03-26T00:11:14.815Z,100100.78
2023-03-26T00:13:44.565Z,100101.72
2023-03-26T00:16:16.762Z,100097.25
2023-03-26T00:18:44.717Z,100097.38
2023-03-26T00:21:14.731Z,100106.75
2023-03-26T00:23:44.863Z,100091.06
2023-03-26T00:26:21.594Z,100073.25
2023-03-26T00:28:49.980Z,100090.25
2023-03-26T00:31:19.195Z,100084.16
2023-03-26T00:33:59.120Z,100083.28
2023-03-26T00:36:27.246Z,100081.41
2023-03-26T00:38:55.202Z,100067.75
2023-03-26T00:41:26.387Z,100087.53
2023-03-26T00:43:57.203Z,100080.59
2023-03-26T00:46:29.519Z,100074.63
2023-03-26T00:48:59.632Z,100078.88
2023-03-26T00:51:28.642Z,100069.38
2023-03-26T00:53:57.008Z,100080.59
2023-03-26T00:56:26.203Z,100070.13
2023-03-26T00:58:53.820Z,100074.56
2023-03-26T01:01:24.538Z,100083.16
2023-03-26T01:04:06.861Z,100080.69
2023-03-26T01:06:39.003Z,100072.03
2023-03-26T01:09:13.931Z,100063.28
2023-03-26T01:11:42.064Z,100060.63
2023-03-26T01:14:13.002Z,100063.16
2023-03-26T01:16:44.010Z,100065.84
2023-03-26T01:19:19.037Z,100052.06
2023-03-26T01:21:46.848Z,100056.25
2023-03-26T01:24:16.210Z,100025.41
2023-03-26T01:27:04.722Z,100037.28
2023-03-26T01:29:38.452Z,100048.63
2023-03-26T01:32:18.433Z,100034.75
2023-03-26T01:35:02.822Z,100046.66
2023-03-26T01:37:41.103Z,100040.75
2023-03-26T01:40:17.947Z,100052.09
2023-03-26T01:42:53.670Z,100041.69
2023-03-26T01:45:25.419Z,100029.63
2023-03-26T01:47:53.354Z,100030.41
2023-03-26T01:50:21.250Z,100025.84
2023-03-26T01:52:49.080Z,100033.69
2023-03-26T01:55:19.540Z,100023.28
2023-03-26T01:57:59.844Z,100038.81
2023-03-26T02:00:32.042Z,100039.75
2023-03-26T02:03:12.568Z,100051.84
2023-03-26T02:05:47.096Z,100058.09
2023-03-26T02:08:20.883Z,100058.06
2023-03-26T02:10:52.882Z,100052.00
2023-03-26T02:13:20.871Z,100048.75
2023-03-26T02:15:56.522Z,100048.59
2023-03-26T02:18:25.096Z,100046.88
2023-03-26T02:20:53.100Z,100050.34
2023-03-26T02:23:21.110Z,100057.28
2023-03-26T02:25:51.955Z,100060.72
2023-03-26T02:28:21.250Z,100045.97
2023-03-26T02:30:48.870Z,100054.72
2023-03-26T02:33:16.628Z,100059.91
2023-03-26T02:35:44.807Z,100052.16
2023-03-26T02:38:12.507Z,100062.63
2023-03-26T02:40:40.678Z,100046.13
2023-03-26T02:43:11.456Z,100053.94
2023-03-26T02:45:39.998Z,100046.13
2023-03-26T02:48:07.727Z,100038.44
2023-03-26T02:50:35.822Z,100052.09
2023-03-26T02:53:03.450Z,100043.56
2023-03-26T02:55:32.495Z,100043.56
2023-03-26T02:58:00.377Z,100053.84
2023-03-26T03:00:30.173Z,100059.81
2023-03-26T03:02:58.368Z,100049.47
2023-03-26T03:05:26.353Z,100051.19
2023-03-26T03:07:56.318Z,100045.06
2023-03-26T03:10:28.168Z,100048.59
2023-03-26T03:12:56.061Z,100033.94
2023-03-26T03:15:26.001Z,100030.47
2023-03-26T03:17:55.319Z,100044.16
2023-03-26T03:20:23.093Z,100030.44
2023-03-26T03:22:51.442Z,100027.78
2023-03-26T03:25:19.670Z,100035.47
2023-03-26T03:27:47.460Z,100026.84
2023-03-26T03:30:15.256Z,100023.44
2023-03-26T03:32:43.130Z,100015.59
2023-03-26T03:35:14.136Z,100012.97
2023-03-26T03:37:43.028Z,100030.28
2023-03-26T03:40:11.359Z,100027.56
2023-03-26T03:42:39.634Z,100026.69
2023-03-26T03:45:08.936Z,100007.06
2023-03-26T03:47:51.496Z,100025.00
2023-03-26T03:50:21.107Z,100016.41
2023-03-26T03:52:48.793Z,100019.69
2023-03-26T03:55:16.431Z,100020.63
2023-03-26T03:57:44.782Z,100019.78
2023-03-26T04:00:14.186Z,100017.19
2023-03-26T04:02:42.285Z,100016.44
2023-03-26T04:05:15.651Z,100011.13
2023-03-26T04:07:44.707Z,100015.44
2023-03-26T04:10:15.671Z,100012.78
2023-03-26T04:12:44.982Z,100011.06
2023-03-26T04:15:12.589Z,100014.47
2023-03-26T04:17:40.453Z,99990.34
2023-03-26T04:20:10.755Z,99998.03
2023-03-26T04:22:38.710Z,100004.00
2023-03-26T04:25:12.749Z,100016.03
2023-03-26T04:27:40.737Z,100009.91
2023-03-26T04:30:12.112Z,100014.34
2023-03-26T04:32:39.997Z,100009.03
2023-03-26T04:35:11.517Z,100017.66
2023-03-26T04:37:44.323Z,100016.88
2023-03-26T04:40:15.239Z,100010.19
2023-03-26T04:42:43.021Z,100022.91
2023-03-26T04:45:11.289Z,100022.06
2023-03-26T04:47:39.152Z,100023.66
2023-03-26T04:50:09.693Z,100031.38
2023-03-26T04:52:38.309Z,100024.38
2023-03-26T04:55:12.946Z,100027.88
2023-03-26T04:57:45.537Z,100027.75
2023-03-26T05:00:15.681Z,100017.41
2023-03-26T05:02:43.772Z,100027.66
2023-03-26T05:05:11.891Z,100029.38
2023-03-26T05:07:39.570Z,100014.50
2023-03-26T05:10:13.684Z,100025.75
2023-03-26T05:12:43.177Z,100030.13
2023-03-26T05:15:12.260Z,100028.56
2023-03-26T05:17:41.597Z,100049.16
2023-03-26T05:20:17.781Z,100042.19
2023-03-26T05:22:50.986Z,100038.88
2023-03-26T05:25:20.027Z,100043.91
2023-03-26T05:27:49.155Z,100038.72
2023-03-26T05:30:19.262Z,100037.97
2023-03-26T05:32:48.434Z,100045.53
2023-03-26T05:35:17.103Z,100030.00
2023-03-26T05:37:49.216Z,100036.88
2023-03-26T05:40:17.511Z,100041.91
2023-03-26T05:42:45.193Z,100045.28
2023-03-26T05:45:15.271Z,100040.81
2023-03-26T05:47:43.471Z,100036.47
2023-03-26T05:50:11.731Z,100035.47
2023-03-26T05:52:41.565Z,100046.66
2023-03-26T05:55:09.974Z,100042.44
2023-03-26T05:57:38.013Z,100042.25
2023-03-26T06:00:08.163Z,100045.63
2023-03-26T06:02:37.732Z,100021.50
2023-03-26T06:05:05.967Z,100021.31
2023-03-26T06:07:35.597Z,100037.50
2023-03-26T06:10:03.429Z,100042.56
2023-03-26T06:12:31.195Z,100030.34
2023-03-26T06:15:00.574Z,100025.13
2023-03-26T06:17:28.424Z,100023.22
2023-03-26T06:19:57.482Z,100027.59
2023-03-26T06:22:26.110Z,100015.31
2023-03-26T06:24:53.857Z,100018.78
2023-03-26T06:27:24.558Z,100021.25
2023-03-26T06:29:52.505Z,100029.16
2023-03-26T06:32:20.730Z,100042.22
2023-03-26T06:34:48.916Z,100037.06
2023-03-26T06:37:18.177Z,100043.06
2023-03-26T06:39:45.879Z,100031.81
2023-03-26T06:42:13.557Z,100042.84
2023-03-26T06:44:41.263Z,100032.22
2023-03-26T06:47:10.070Z,100044.00
2023-03-26T06:49:38.356Z,100044.66
2023-03-26T06:52:12.213Z,100048.75
2023-03-26T06:54:41.784Z,100039.16
2023-03-26T06:57:09.426Z,100044.03
2023-03-26T06:59:37.361Z,100047.97
2023-03-26T07:02:05.290Z,100043.59
2023-03-26T07:04:32.882Z,100038.81
2023-03-26T07:07:01.584Z,100036.69
2023-03-26T07:09:29.608Z,100041.03
2023-03-26T07:11:58.723Z,100037.72
2023-03-26T07:14:26.421Z,100035.50
2023-03-26T07:16:54.330Z,100027.31
2023-03-26T07:19:23.026Z,100020.03
2023-03-26T07:21:51.904Z,100011.22
2023-03-26T07:24:20.310Z,100015.38
2023-03-26T07:26:56.727Z,100011.13
2023-03-26T07:29:35.338Z,100014.53
2023-03-26T07:32:18.915Z,100026.88
2023-03-26T07:34:53.244Z,100035.91
2023-03-26T07:37:33.148Z,100024.38
2023-03-26T07:40:04.885Z,100023.13
2023-03-26T07:42:50.770Z,100019.69
2023-03-26T07:45:28.400Z,100034.16
2023-03-26T07:47:56.626Z,100021.41
2023-03-26T07:50:25.387Z,100034.16
2023-03-26T07:52:53.573Z,100035.78
2023-03-26T07:55:22.059Z,100024.63
2023-03-26T07:57:58.835Z,100019.31
2023-03-26T08:00:34.197Z,100026.00
2023-03-26T08:03:26.666Z,100011.50
2023-03-26T08:06:05.613Z,100022.13
2023-03-26T08:08:45.250Z,100032.19
2023-03-26T08:11:27.908Z,100033.03
2023-03-26T08:14:08.620Z,100027.84
2023-03-26T08:16:46.574Z,100030.69
2023-03-26T08:19:32.596Z,100032.63
2023-03-26T08:22:08.978Z,100031.78
2023-03-26T08:24:43.340Z,100031.56
2023-03-26T08:27:20.902Z,100034.19
2023-03-26T08:29:59.803Z,100031.94
2023-03-26T08:32:29.696Z,100019.78
2023-03-26T08:34:57.600Z,100041.91
2023-03-26T08:37:25.208Z,100034.28
2023-03-26T08:39:53.282Z,100044.22
2023-03-26T08:43:04.256Z,100040.81
2023-03-26T08:46:11.768Z,100044.06
2023-03-26T08:49:05.695Z,100043.47
2023-03-26T08:52:26.968Z,100052.41
2023-03-26T08:55:23.017Z,100041.75
2023-03-26T08:58:36.881Z,100030.19
2023-03-26T09:01:28.993Z,100025.69
2023-03-26T09:04:29.060Z,100033.09
2023-03-26T09:07:24.681Z,100035.75
2023-03-26T09:10:31.185Z,100029.00
2023-03-26T09:13:35.477Z,100015.00
2023-03-26T09:16:47.779Z,100022.88
2023-03-26T09:19:58.036Z,100019.25
2023-03-26T09:22:51.199Z,100009.84
2023-03-26T09:25:55.110Z,100005.66
2023-03-26T09:28:56.057Z,99995.78
2023-03-26T09:31:44.889Z,99973.16
2023-03-26T09:34:27.879Z,99989.91
2023-03-26T09:36:56.947Z,99989.63
2023-03-26T09:39:38.186Z,99993.34
2023-03-26T09:42:13.929Z,99984.09
2023-03-26T09:45:06.591Z,99976.13
2023-03-26T09:48:09.380Z,99946.84
2023-03-26T09:51:07.265Z,99948.31
2023-03-26T09:53:51.601Z,99929.28
2023-03-26T09:56:35.694Z,99921.88
2023-03-26T09:59:23.101Z,99917.81
2023-03-26T10:01:58.716Z,99926.56
2023-03-26T10:05:01.838Z,99925.94
2023-03-26T10:07:49.369Z,99929.72
2023-03-26T10:10:28.884Z,99927.06
2023-03-26T10:13:14.108Z,99946.81
2023-03-26T10:15:58.467Z,99938.81
2023-03-26T10:18:40.752Z,99927.56
2023-03-26T10:21:18.824Z,99946.31
2023-03-26T10:24:00.832Z,99923.91
2023-03-26T10:27:09.385Z,99927.94
2023-03-26T10:32:40.603Z,99904.78
2023-03-26T10:35:25.704Z,99903.59
2023-03-26T10:38:05.732Z,99892.91
2023-03-26T10:40:40.325Z,99893.28
2023-03-26T10:43:46.421Z,99899.59
2023-03-26T10:46:47.273Z,99901.22
2023-03-26T10:49:38.232Z,99904.69
2023-03-26T10:52:09.250Z,99886.78
2023-03-26T10:54:50.595Z,99882.34
2023-03-26T10:57:33.830Z,99885.03
2023-03-26T11:00:14.336Z,99870.69
2023-03-26T11:02:46.815Z,99853.41
2023-03-26T11:05:34.647Z,99856.22
2023-03-26T11:08:06.756Z,99858.53
2023-03-26T11:10:49.065Z,99854.75
2023-03-26T11:13:26.156Z,99843.03
2023-03-26T11:16:00.757Z,99848.13
2023-03-26T11:18:41.557Z,99850.97
2023-03-26T11:21:20.611Z,99843.88
2023-03-26T11:24:05.009Z,99834.78
2023-03-26T11:26:47.563Z,99841.16
2023-03-26T11:29:31.296Z,99835.94
2023-03-26T11:32:06.683Z,99852.19
2023-03-26T11:34:39.110Z,99854.28
2023-03-26T11:37:17.141Z,99869.78
2023-03-26T11:39:50.931Z,99856.19
2023-03-26T11:42:22.961Z,99855.19
2023-03-26T11:44:55.129Z,99849.34
2023-03-26T11:47:29.368Z,99842.47
2023-03-26T11:50:00.267Z,99840.09
2023-03-26T11:52:29.426Z,99839.97
2023-03-26T11:54:57.426Z,99838.22
2023-03-26T11:57:30.075Z,99820.78
2023-03-26T12:00:01.972Z,99815.06
2023-03-26T12:02:31.453Z,99829.31
2023-03-26T12:05:14.886Z,99830.25
2023-03-26T12:07:53.069Z,99842.88
2023-03-26T12:10:26.652Z,99866.34
2023-03-26T12:13:00.246Z,99898.78
2023-03-26T12:15:31.472Z,99919.78
2023-03-26T12:18:24.391Z,99935.19
2023-03-26T12:21:04.747Z,99946.09
2023-03-26T12:24:01.280Z,99978.00
2023-03-26T12:26:36.136Z,99969.16
2023-03-26T12:29:10.410Z,99958.34
2023-03-26T12:31:57.174Z,99969.44
2023-03-26T12:34:30.741Z,99971.09
2023-03-26T12:36:59.037Z,99973.16
2023-03-26T12:40:07.088Z,99964.38
2023-03-26T12:44:51.111Z,99964.97
2023-03-26T12:45:22.166Z,99965.81
2023-03-26T12:47:57.562Z,99953.53
2023-03-26T12:50:41.923Z,99963.25
2023-03-26T12:53:37.780Z,99949.97
2023-03-26T12:56:18.313Z,99957.88
2023-03-26T12:59:06.449Z,99958.66
2023-03-26T13:01:47.744Z,99947.06
2023-03-26T13:04:35.059Z,99956.13
2023-03-26T13:07:14.365Z,99947.22
2023-03-26T13:10:05.448Z,99952.16
2023-03-26T13:12:45.572Z,99938.38
2023-03-26T13:15:23.419Z,99951.44
2023-03-26T13:18:07.442Z,99950.88
2023-03-26T13:20:49.811Z,99953.22
2023-03-26T13:23:31.007Z,99961.56
2023-03-26T13:26:15.733Z,99966.31
2023-03-26T13:28:54.442Z,99956.09
2023-03-26T13:31:27.711Z,99965.47
2023-03-26T13:34:06.806Z,99969.88
2023-03-26T13:36:45.554Z,99968.00
2023-03-26T13:39:28.789Z,99970.66
2023-03-26T13:42:11.295Z,99977.75
2023-03-26T13:44:50.978Z,99977.75
2023-03-26T13:47:24.170Z,99971.34
2023-03-26T13:49:55.968Z,99976.75
2023-03-26T13:52:26.973Z,99979.75
2023-03-26T13:55:04.623Z,99975.59
2023-03-26T13:57:38.781Z,99980.00
2023-03-26T14:00:15.296Z,99975.75
2023-03-26T14:02:46.184Z,99970.34
2023-03-26T14:05:24.195Z,99945.16
2023-03-26T14:07:56.430Z,99954.72
2023-03-26T14:10:27.494Z,99947.03
2023-03-26T14:13:01.627Z,99960.28
2023-03-26T14:15:40.804Z,99962.78
2023-03-26T14:18:24.669Z,99964.47
2023-03-26T14:21:20.810Z,99972.41
2023-03-26T14:24:09.944Z,99973.31
2023-03-26T14:27:07.088Z,99975.94
2023-03-26T14:30:13.476Z,99970.78
2023-03-26T14:32:52.791Z,99974.41
2023-03-26T14:35:33.340Z,99971.91
2023-03-26T14:38:24.376Z,99961.22
2023-03-26T14:40:57.900Z,99974.84
2023-03-26T14:43:49.972Z,99962.50
2023-03-26T14:46:34.210Z,99966.78
2023-03-26T14:49:40.423Z,99974.56
2023-03-26T14:52:17.150Z,99968.47
2023-03-26T14:54:53.671Z,99971.09
2023-03-26T14:57:52.823Z,99972.09
2023-03-26T15:00:56.334Z,99969.31
2023-03-26T15:04:27.865Z,99974.50
2023-03-26T15:10:34.819Z,99984.97
2023-03-26T15:16:17.840Z,99981.94
2023-03-26T15:19:31.639Z,99977.69
2023-03-26T15:22:39.737Z,99991.59
2023-03-26T15:25:53.666Z,99984.13
2023-03-26T15:29:00.112Z,99985.91
2023-03-26T15:31:50.150Z,99998.94
2023-03-26T15:34:50.172Z,99992.06
2023-03-26T15:38:04.393Z,100003.50
2023-03-26T15:40:47.392Z,99988.28
2023-03-26T15:43:19.623Z,100005.47
2023-03-26T15:45:51.371Z,100001.41
2023-03-26T15:48:32.713Z,99998.72
2023-03-26T15:51:28.524Z,100004.13
2023-03-26T15:54:04.392Z,99998.34
2023-03-26T15:56:57.281Z,100001.97
2023-03-26T15:59:38.899Z,100001.19
2023-03-26T16:02:19.412Z,99987.47
2023-03-26T16:04:53.036Z,99991.94
2023-03-26T16:07:48.213Z,99998.81
2023-03-26T16:10:35.842Z,100001.38
2023-03-26T16:13:30.334Z,100009.31
2023-03-26T16:16:19.950Z,100004.31
2023-03-26T16:18:54.710Z,100011.34
2023-03-26T16:21:54.558Z,100025.19
2023-03-26T16:24:30.353Z,100023.47
2023-03-26T16:27:30.167Z,100014.34
2023-03-26T16:30:29.583Z,100007.03
2023-03-26T16:33:10.885Z,100008.19
2023-03-26T16:36:04.959Z,100017.75
2023-03-26T16:39:11.471Z,100026.50
2023-03-26T16:42:05.945Z,100034.84
2023-03-26T16:44:45.110Z,100054.56
2023-03-26T16:47:29.853Z,100058.03
2023-03-26T16:50:11.985Z,100063.34
2023-03-26T16:52:49.534Z,100042.94
2023-03-26T16:55:23.086Z,100065.00
2023-03-26T16:57:56.769Z,100054.56
2023-03-26T17:00:42.765Z,100052.25
2023-03-26T17:03:43.605Z,100058.63
2023-03-26T17:06:48.236Z,100073.28
2023-03-26T17:09:28.614Z,100071.81
2023-03-26T17:12:07.791Z,100074.41
2023-03-26T17:14:53.139Z,100073.50
2023-03-26T17:17:38.055Z,100074.56
2023-03-26T17:20:18.459Z,100080.78
2023-03-26T17:22:54.664Z,100071.50
2023-03-26T17:25:28.805Z,100092.28
2023-03-26T17:28:16.139Z,100077.53
2023-03-26T17:31:00.646Z,100069.84
2023-03-26T17:33:33.572Z,100085.44
2023-03-26T17:36:30.044Z,100085.81
2023-03-26T17:39:41.644Z,100082.63
2023-03-26T17:42:25.892Z,100093.81
2023-03-26T17:44:55.248Z,100097.50
2023-03-26T17:47:42.497Z,100095.31
2023-03-26T17:50:14.567Z,100097.34
2023-03-26T17:52:53.338Z,100097.47
2023-03-26T17:55:26.170Z,100100.84
2023-03-26T17:57:58.118Z,100091.38
2023-03-26T18:00:29.397Z,100094.00
2023-03-26T18:03:02.925Z,100086.56
2023-03-26T18:05:31.905Z,100093.50
2023-03-26T18:08:40.431Z,100094.66
2023-03-26T18:11:56.184Z,100084.41
2023-03-26T18:14:54.808Z,100085.72
2023-03-26T18:17:24.465Z,100090.03
2023-03-26T18:20:04.962Z,100095.13
2023-03-26T18:22:33.589Z,100091.25
2023-03-26T18:25:03.379Z,100087.63
2023-03-26T18:27:39.533Z,100093.88
2023-03-26T18:30:19.679Z,100080.06
2023-03-26T18:32:52.827Z,100085.44
2023-03-26T18:35:27.562Z,100086.03
2023-03-26T18:38:00.841Z,100082.78
2023-03-26T18:40:32.751Z,100081.44
2023-03-26T18:43:01.000Z,100100.50
2023-03-26T18:45:32.948Z,100093.69
2023-03-26T18:48:05.090Z,100098.16
2023-03-26T18:50:35.269Z,100092.75
2023-03-26T18:53:05.595Z,100101.97
2023-03-26T18:55:35.864Z,100095.72
2023-03-26T18:58:20.907Z,100089.19
2023-03-26T19:00:56.135Z,100112.75
2023-03-26T19:03:24.989Z,100091.81
2023-03-26T19:05:56.230Z,100109.00
2023-03-26T19:08:25.755Z,100106.31
2023-03-26T19:10:57.407Z,100103.56
2023-03-26T19:13:28.951Z,100105.41
2023-03-26T19:15:59.266Z,100095.59
2023-03-26T19:18:29.515Z,100100.72
2023-03-26T19:20:59.598Z,100108.59
2023-03-26T19:23:32.194Z,100097.31
2023-03-26T19:26:02.226Z,100090.53
2023-03-26T19:28:33.701Z,100088.75
2023-03-26T19:31:10.173Z,100101.28
2023-03-26T19:33:42.560Z,100100.50
2023-03-26T19:36:19.341Z,100101.47
2023-03-26T19:38:51.608Z,100098.97
2023-03-26T19:41:22.999Z,100100.78
2023-03-26T19:43:51.784Z,100100.84
2023-03-26T19:46:22.227Z,100093.13
2023-03-26T19:48:51.923Z,100104.44
2023-03-26T19:51:22.118Z,100105.38
2023-03-26T19:53:53.691Z,100104.63
2023-03-26T19:56:22.193Z,100111.81
2023-03-26T19:58:50.509Z,100105.88
2023-03-26T20:01:20.752Z,100107.84
2023-03-26T20:03:56.185Z,100103.59
2023-03-26T20:06:33.986Z,100106.34
2023-03-26T20:09:06.112Z,100097.63
2023-03-26T20:11:36.155Z,100104.66
2023-03-26T20:14:13.743Z,100094.19
2023-03-26T20:16:45.443Z,100087.38
2023-03-26T20:19:15.465Z,100088.28
2023-03-26T20:21:46.772Z,100094.69
2023-03-26T20:24:18.514Z,100088.00
2023-03-26T20:26:46.869Z,100077.78
2023-03-26T20:29:15.200Z,100093.38
2023-03-26T20:31:43.422Z,100098.59
2023-03-26T20:34:16.648Z,100084.94
2023-03-26T20:36:44.873Z,100091.84
2023-03-26T20:39:13.520Z,100097.06
2023-03-26T20:41:49.032Z,100087.66
2023-03-26T20:44:18.520Z,100089.41
2023-03-26T20:46:47.919Z,100092.13
2023-03-26T20:49:17.698Z,100079.34
2023-03-26T20:51:45.938Z,100078.44
2023-03-26T20:54:16.330Z,100081.94
2023-03-26T20:56:45.064Z,100087.88
2023-03-26T20:59:16.483Z,100081.97
2023-03-26T21:01:45.018Z,100090.59
2023-03-26T21:04:13.320Z,100077.69
2023-03-26T21:06:42.690Z,100083.88
2023-03-26T21:09:14.031Z,100082.16
2023-03-26T21:11:51.873Z,100076.19
2023-03-26T21:14:24.003Z,100085.81
2023-03-26T21:16:52.793Z,100078.97
2023-03-26T21:19:20.869Z,100093.84
2023-03-26T21:22:12.683Z,100099.28
2023-03-26T21:24:51.834Z,100103.97
2023-03-26T21:27:27.798Z,100095.59
2023-03-26T21:29:57.185Z,100113.63
2023-03-26T21:32:25.925Z,100103.50
2023-03-26T21:34:58.943Z,100120.03
2023-03-26T21:37:29.295Z,100128.03
2023-03-26T21:39:57.566Z,100123.13
2023-03-26T21:42:28.416Z,100127.72
2023-03-26T21:44:56.640Z,100126.84
2023-03-26T21:47:28.293Z,100141.72
2023-03-26T21:49:56.547Z,100127.16
2023-03-26T21:52:24.922Z,100129.84
2023-03-26T21:54:57.035Z,100122.31
2023-03-26T21:57:40.631Z,100136.03
2023-03-26T22:00:12.354Z,100130.94
2023-03-26T22:02:49.579Z,100140.53
2023-03-26T22:05:19.338Z,100129.31
2023-03-26T22:07:54.753Z,100133.63
2023-03-26T22:10:24.278Z,100133.75
2023-03-26T22:12:53.636Z,100140.88
2023-03-26T22:15:21.455Z,100126.59
2023-03-26T22:17:49.259Z,100145.56
2023-03-26T22:20:17.913Z,100152.50
2023-03-26T22:22:45.720Z,100156.00
2023-03-26T22:25:13.588Z,100153.47
2023-03-26T22:27:46.408Z,100155.25
2023-03-26T22:30:15.084Z,100170.66
2023-03-26T22:32:44.246Z,100144.56
2023-03-26T22:35:12.893Z,100153.16
2023-03-26T22:37:40.772Z,100149.63
2023-03-26T22:40:10.606Z,100146.22
2023-03-26T22:42:39.387Z,100141.00
2023-03-26T22:45:10.686Z,100129.03
2023-03-26T22:47:39.508Z,100145.66
2023-03-26T22:50:08.795Z,100146.88
2023-03-26T22:52:37.262Z,100153.75
2023-03-26T22:55:05.717Z,100141.84
2023-03-26T22:57:33.473Z,100153.81
2023-03-26T23:00:01.178Z,100144.50
2023-03-26T23:02:31.660Z,100147.94
2023-03-26T23:04:59.374Z,100155.84
2023-03-26T23:07:27.095Z,100143.75
2023-03-26T23:09:54.897Z,100133.44
2023-03-26T23:12:24.495Z,100130.84
2023-03-26T23:14:53.542Z,100125.81
2023-03-26T23:17:21.347Z,100132.88
2023-03-26T23:19:56.351Z,100114.59
2023-03-26T23:22:24.246Z,100127.59
2023-03-26T23:24:51.796Z,100126.66
2023-03-26T23:27:22.645Z,100127.59
2023-03-26T23:29:50.665Z,100136.34
2023-03-26T23:32:23.642Z,100132.19
2023-03-26T23:34:53.105Z,100137.38
2023-03-26T23:37:22.402Z,100138.22
2023-03-26T23:39:50.261Z,100142.69
2023-03-26T23:42:28.720Z,100136.69
2023-03-26T23:44:57.612Z,100141.78
2023-03-26T23:47:25.640Z,100135.66
2023-03-26T23:49:53.844Z,100129.78
2023-03-26T23:52:22.851Z,100146.13
2023-03-26T23:54:50.665Z,100128.81
2023-03-26T23:57:18.725Z,100138.22
2023-03-26T23:59:46.440Z,100140.88
